Tropical Cyclones
[Index]
Main Index Home Page Stock Weather Photos Extreme Storms Discussion Storm News and Storm Chasing Reports Tropical Cyclones / Hurricanes / Typhoons Weather Data and Links Wild Fires / Bushfires Weather Observation Techniques Weather Picture Catalogue Tornado Pictures and Reports Stock Video Footage and DVDs for sale
Season 1972-1973 Tropical Cyclone KIRSTY Track Map
Season 1972-1973 Summaries: [BoM-AU] [JTWC-AU] [JTWC-SIO] [JTWC-SPAC] [JTWC-SH]
<<- Previous TC | JTWC 1972-1973 Season | Next TC ->>

click for intensity scale information  Lat/long Grid: Show Hide

 Date Labels: Show Hide

Joint Typhoon Warning Centre Cyclone Data

Name: KIRSTY
Number: 825 / 7323

21 Feb 1973 00:00 UTC to 02 Mar 1973 12:00 UTC

    date/time    lat    long     hPa   cat  kts
1973-02-21 00   12.9   151.1                              
1973-02-21 06   13.0   151.3                              
1973-02-21 12   13.2   151.6                              
1973-02-21 18   13.5   151.9                              
1973-02-22 00   13.8   152.3                              
1973-02-22 06   13.8   152.7                              
1973-02-22 12   13.9   153.1                              
1973-02-22 18   14.0   153.5                              
1973-02-23 00   14.0   154.0                              
1973-02-23 06   14.0   154.4                              
1973-02-23 12   14.0   154.9                              
1973-02-23 18   14.0   155.4                              
1973-02-24 00   14.0   156.0                              
1973-02-24 06   14.0   156.5                              
1973-02-24 12   14.0   156.9                              
1973-02-24 18   14.0   157.5                              
1973-02-25 00   14.2   158.1                              
1973-02-25 06   15.0   158.2                              
1973-02-25 12   15.9   157.8                              
1973-02-25 18   16.4   156.3                              
1973-02-26 00   17.1   155.1                              
1973-02-26 06   18.0   154.9                              
1973-02-26 12   19.0   154.8                              
1973-02-26 18   19.9   154.7                              
1973-02-27 00   20.9   154.6                              
1973-02-27 06   22.4   154.7                              
1973-02-27 12   24.3   154.9                              
1973-02-27 18   26.4   155.3                              
1973-02-28 00   28.3   156.0                              
1973-02-28 06   29.6   157.2                              
1973-02-28 12   30.7   158.2                              
1973-02-28 18   32.1   158.6                              
1973-03-01 00   33.6   159.0                              
1973-03-01 06   34.0   159.3                              
1973-03-01 12   34.3   159.7                              
1973-03-01 18   36.6   161.2                              
1973-03-02 00   39.0   163.1                              
1973-03-02 06   40.4   164.2                              
1973-03-02 12   41.2   165.0                              
Winds are 1-min average.

Tropical cyclone tracks developed by Michael Bath using data from the Joint Typhoon Warning Centre Best Tracks and Google Maps.


[Australian Severe Weather index] [Copyright Notice] [Email Contacts] [Search This Site] [Privacy Policy]
Document: tropical_cyclone_kirsty.htm Updated: 18 September 2016